KFTY

Fulton County-Brown Field Airport

Atlanta, Georgia, USA
METAR KFTY 140353Z 31007KT 10SM -RA OVC007 07/06 A3021 RMK AO2 SLP230 P0001 T00670061
Observed Flight Rules
Nov-14 @ 03:53 UTC (55 minutes ago) Instrument Flight Rules
Wind Visibility Clouds Conditions
310° at 7 knots 10 miles
  • Overcast at 700' AGL
  • Light Rain
Temperatures Readings Precipitation
Current 7°C / 45°F
Dewpoint 6°C / 43°F
Humidity 93%
Altimeter 30.21" Hg
Pressure 1023 hPa
Elevation 263
Current Rain 0.01
METAR KFTY 140353Z 31007KT 10SM -RA OVC007 07/06 A3021 RMK AO2 SLP230 P0001 T00670061
Observed Flight Rules
Nov-14 @ 03:53 UTC
(55 minutes ago)
IFR
Wind Visibility
310° at 7 knots 10 miles
Clouds
  • Overcast at 700' AGL
Conditions
  • Light Rain
Temperature Dewpoint
7°C / 45°F 6°C / 43°F
Humidity Altimeter Pressure
93% 30.21" Hg 1023 hPa
Current Rain
0.01